TN01 weather

Ray Airport
Rosemark, Tennessee, United States

Public forecast

Using degrees Fahrenheit for public forecast. Weather courtesy of forecast.io.

Closest aviation weather report (METAR) to Ray Airport

Closest report is Millington-Memphis Airport, 2.6 nm (4.7 km) WNW. Retrieved 2020/04/09 19:50 UTC (23 minutes ago):

KNQA 091950Z 33009KT 10SM CLR 19/02 A2994

Closest aviation forecast (TAF) to Ray Airport

Closest forecast is Memphis International Airport, 19.9 nm (36.8 km) SSW. Retrieved 2020/04/09 18:42 UTC (2 hours ago):

TAF KMEM 091739Z 0918/1024 02012G18KT P6SM FEW250 FM100100 01008KT P6SM SCT100 BKN250 FM101200 04009KT P6SM SCT250